WXM80 ListenWXM80 Stop

You find our weather info also at:

UK Metoffice

WeatherCloud

Weather Underground

Northeastern Weather Network

AWEKAS

Citizen Weather Observer Program (CWOP)

HAMweather, WeatherForYou, PWS Weather


Weather Underground History page Text

Daily Summary for March 19, 2017 Units:  English    Metric   Both
« Previous Day
Next Day »
Daily Weekly Monthly Yearly Custom
  High: Low: Average:
Temperature: 45.9 °F 32.1 °F 37.9 °F
Dew Point: 34.0 °F 26.2 °F 30.4 °F
Humidity: 84 % 61 % 74 %
Wind Speed: 14.0 mph 0.0 mph 6.7 mph
Wind Gust: 20.7 mph - -
Wind:- - ENE
Pressure: 30.17 in 30.07 in -
Precipitation: 0.00 in    
Historical Graphs
 
 
Tabular Data for March 19, 2017
Time Temperature Dew Point Pressure Wind Wind Speed Wind Gust Humidity Rainfall Rate (Hourly)
00:01 35.9 °F 30.6 °F 30.14 in ENE 12.8 mph 16.1 mph 81 % 0.00 in
00:06 35.9 °F 30.6 °F 30.15 in ENE 13.0 mph 18.4 mph 81 % 0.00 in
00:11 35.9 °F 30.9 °F 30.15 in ENE 11.2 mph 13.8 mph 82 % 0.00 in
00:16 35.7 °F 30.4 °F 30.15 in ENE 10.7 mph 19.6 mph 81 % 0.00 in
00:21 35.6 °F 30.3 °F 30.15 in ENE 11.4 mph 16.1 mph 81 % 0.00 in
00:26 35.6 °F 30.6 °F 30.15 in ENE 9.2 mph 12.7 mph 82 % 0.00 in
00:31 35.5 °F 30.5 °F 30.15 in NE 13.4 mph 19.6 mph 82 % 0.00 in
00:36 35.4 °F 30.5 °F 30.14 in East 11.3 mph 17.3 mph 82 % 0.00 in
00:41 35.3 °F 30.7 °F 30.14 in ENE 11.0 mph 16.0 mph 83 % 0.00 in
00:46 35.2 °F 30.3 °F 30.14 in NE 10.2 mph 15.0 mph 82 % 0.00 in
00:51 35.1 °F 30.5 °F 30.14 in NE 11.6 mph 16.1 mph 83 % 0.00 in
00:56 35.0 °F 30.1 °F 30.14 in ENE 11.5 mph 17.3 mph 82 % 0.00 in
01:01 34.9 °F 30.0 °F 30.14 in ENE 11.8 mph 16.0 mph 82 % 0.00 in
01:06 34.9 °F 30.3 °F 30.13 in ENE 12.7 mph 18.4 mph 83 % 0.00 in
01:11 34.8 °F 30.2 °F 30.13 in NE 7.8 mph 13.0 mph 83 % 0.00 in
01:16 34.7 °F 30.4 °F 30.13 in ENE 10.2 mph 16.1 mph 84 % 0.00 in
01:21 34.6 °F 30.3 °F 30.12 in NE 10.6 mph 16.1 mph 84 % 0.00 in
01:26 34.6 °F 30.0 °F 30.12 in NE 10.6 mph 15.0 mph 83 % 0.00 in
01:31 34.6 °F 30.0 °F 30.12 in North 10.8 mph 17.3 mph 83 % 0.00 in
01:36 34.6 °F 30.0 °F 30.12 in ENE 12.2 mph 15.0 mph 83 % 0.00 in
01:41 34.7 °F 30.4 °F 30.12 in ENE 13.1 mph 16.1 mph 84 % 0.00 in
01:47 34.7 °F 30.4 °F 30.11 in ENE 11.6 mph 16.1 mph 84 % 0.00 in
01:52 34.7 °F 30.4 °F 30.12 in NE 9.2 mph 16.1 mph 84 % 0.00 in
01:57 34.7 °F 30.1 °F 30.12 in East 10.4 mph 16.1 mph 83 % 0.00 in
02:02 34.8 °F 30.2 °F 30.12 in ENE 10.0 mph 17.3 mph 83 % 0.00 in
02:07 34.8 °F 30.2 °F 30.12 in NE 12.8 mph 16.1 mph 83 % 0.00 in
02:12 34.9 °F 30.0 °F 30.12 in NE 11.7 mph 16.1 mph 82 % 0.00 in
02:17 35.0 °F 30.4 °F 30.12 in East 10.7 mph 15.0 mph 83 % 0.00 in
02:22 35.2 °F 30.6 °F 30.12 in NE 10.3 mph 17.3 mph 83 % 0.00 in
02:27 35.2 °F 30.3 °F 30.12 in ENE 12.9 mph 18.4 mph 82 % 0.00 in
02:32 35.3 °F 30.4 °F 30.12 in NE 11.4 mph 16.0 mph 82 % 0.00 in
02:37 35.4 °F 30.5 °F 30.12 in East 13.2 mph 20.7 mph 82 % 0.00 in
02:42 35.4 °F 30.1 °F 30.12 in ENE 13.4 mph 16.1 mph 81 % 0.00 in
02:47 35.4 °F 30.1 °F 30.11 in NE 14.0 mph 19.6 mph 81 % 0.00 in
02:53 35.4 °F 30.1 °F 30.11 in NE 11.2 mph 17.3 mph 81 % 0.00 in
02:58 35.4 °F 30.1 °F 30.11 in ENE 12.7 mph 19.6 mph 81 % 0.00 in
03:03 35.4 °F 30.1 °F 30.11 in ENE 9.6 mph 17.3 mph 81 % 0.00 in
03:08 35.4 °F 30.1 °F 30.11 in East 12.9 mph 17.3 mph 81 % 0.00 in
03:13 35.4 °F 30.1 °F 30.11 in ENE 12.4 mph 17.3 mph 81 % 0.00 in
03:18 35.4 °F 30.1 °F 30.11 in ENE 13.5 mph 19.6 mph 81 % 0.00 in
03:23 35.5 °F 30.2 °F 30.12 in ENE 9.8 mph 13.8 mph 81 % 0.00 in
03:28 35.6 °F 30.3 °F 30.12 in NE 8.9 mph 13.8 mph 81 % 0.00 in
03:33 35.6 °F 30.3 °F 30.13 in ENE 9.7 mph 12.7 mph 81 % 0.00 in
03:38 35.6 °F 30.0 °F 30.13 in ENE 10.4 mph 13.0 mph 80 % 0.00 in
03:43 35.7 °F 30.4 °F 30.13 in ENE 6.0 mph 10.4 mph 81 % 0.00 in
03:48 35.6 °F 30.3 °F 30.13 in ENE 8.3 mph 16.0 mph 81 % 0.00 in
03:53 35.6 °F 30.0 °F 30.12 in ENE 7.7 mph 12.7 mph 80 % 0.00 in
03:58 35.6 °F 30.0 °F 30.12 in NNE 6.8 mph 10.4 mph 80 % 0.00 in
04:03 35.5 °F 30.2 °F 30.13 in NE 9.0 mph 12.7 mph 81 % 0.00 in
04:08 35.5 °F 30.2 °F 30.13 in ENE 6.1 mph 10.4 mph 81 % 0.00 in
04:13 35.5 °F 30.2 °F 30.13 in ENE 9.7 mph 16.1 mph 81 % 0.00 in
04:18 35.5 °F 29.9 °F 30.13 in NE 7.8 mph 13.8 mph 80 % 0.00 in
04:23 35.5 °F 30.2 °F 30.13 in NE 5.1 mph 6.9 mph 81 % 0.00 in
04:28 35.4 °F 30.1 °F 30.13 in NE 5.0 mph 8.1 mph 81 % 0.00 in
04:33 35.4 °F 30.1 °F 30.13 in NE 8.7 mph 11.5 mph 81 % 0.00 in
04:39 35.4 °F 30.1 °F 30.13 in NNE 5.4 mph 10.4 mph 81 % 0.00 in
04:44 35.3 °F 30.1 °F 30.13 in NE 6.3 mph 10.0 mph 81 % 0.00 in
04:49 35.3 °F 30.1 °F 30.13 in NE 5.4 mph 10.4 mph 81 % 0.00 in
04:54 35.3 °F 30.1 °F 30.13 in NNE 7.7 mph 13.8 mph 81 % 0.00 in
04:59 35.2 °F 30.0 °F 30.13 in NNE 7.8 mph 15.0 mph 81 % 0.00 in
05:04 35.2 °F 30.0 °F 30.13 in NNE 8.7 mph 15.0 mph 81 % 0.00 in
05:09 35.1 °F 29.9 °F 30.13 in NNE 12.1 mph 16.1 mph 81 % 0.00 in
05:14 35.1 °F 29.9 °F 30.13 in NNE 10.6 mph 16.1 mph 81 % 0.00 in
05:19 35.0 °F 29.8 °F 30.13 in NE 9.0 mph 13.8 mph 81 % 0.00 in
05:24 34.9 °F 29.7 °F 30.13 in NE 10.8 mph 18.4 mph 81 % 0.00 in
05:29 34.8 °F 29.3 °F 30.13 in NE 10.3 mph 16.1 mph 80 % 0.00 in
05:35 34.8 °F 29.3 °F 30.14 in NE 9.7 mph 15.0 mph 80 % 0.00 in
05:40 34.7 °F 29.5 °F 30.13 in NE 10.5 mph 17.3 mph 81 % 0.00 in
05:45 34.7 °F 29.5 °F 30.14 in NNE 8.4 mph 11.5 mph 81 % 0.00 in
05:50 34.7 °F 29.2 °F 30.13 in NE 12.1 mph 18.4 mph 80 % 0.00 in
05:55 34.7 °F 29.2 °F 30.14 in NE 8.7 mph 15.0 mph 80 % 0.00 in
06:00 34.7 °F 29.2 °F 30.14 in North 8.4 mph 12.7 mph 80 % 0.00 in
06:05 34.6 °F 29.1 °F 30.14 in NNE 10.2 mph 12.0 mph 80 % 0.00 in
06:10 34.6 °F 29.1 °F 30.14 in North 8.4 mph 11.5 mph 80 % 0.00 in
06:15 34.6 °F 29.4 °F 30.14 in NE 8.6 mph 12.7 mph 81 % 0.00 in
06:20 34.6 °F 29.4 °F 30.14 in NNE 9.1 mph 16.1 mph 81 % 0.00 in
06:25 34.6 °F 29.4 °F 30.14 in NE 8.0 mph 10.4 mph 81 % 0.00 in
06:30 34.6 °F 29.4 °F 30.14 in NNE 6.8 mph 13.8 mph 81 % 0.00 in
06:35 34.6 °F 29.4 °F 30.14 in NNE 12.0 mph 18.4 mph 81 % 0.00 in
06:40 34.6 °F 29.4 °F 30.15 in NNE 9.5 mph 17.3 mph 81 % 0.00 in
06:46 34.6 °F 29.4 °F 30.15 in North 11.0 mph 19.6 mph 81 % 0.00 in
06:51 34.6 °F 29.1 °F 30.14 in NNE 9.7 mph 20.7 mph 80 % 0.00 in
06:56 34.6 °F 29.4 °F 30.14 in NE 8.9 mph 15.0 mph 81 % 0.00 in
07:01 34.6 °F 29.4 °F 30.14 in ENE 9.6 mph 12.7 mph 81 % 0.00 in
07:06 34.6 °F 29.4 °F 30.14 in NNE 10.8 mph 16.1 mph 81 % 0.00 in
07:11 34.6 °F 29.4 °F 30.14 in NE 8.7 mph 15.0 mph 81 % 0.00 in
07:16 34.6 °F 29.4 °F 30.15 in NE 6.8 mph 16.1 mph 81 % 0.00 in
07:21 34.6 °F 29.4 °F 30.15 in ENE 7.5 mph 13.8 mph 81 % 0.00 in
07:26 34.6 °F 29.4 °F 30.15 in NNE 10.5 mph 15.0 mph 81 % 0.00 in
07:31 34.6 °F 29.4 °F 30.15 in NNE 9.9 mph 16.1 mph 81 % 0.00 in
07:36 34.6 °F 29.1 °F 30.15 in NE 8.8 mph 19.6 mph 80 % 0.00 in
07:41 34.6 °F 29.4 °F 30.15 in NNE 6.2 mph 13.8 mph 81 % 0.00 in
07:46 34.6 °F 29.4 °F 30.15 in NNE 7.5 mph 13.0 mph 81 % 0.00 in
07:51 34.6 °F 29.4 °F 30.14 in NE 8.1 mph 12.0 mph 81 % 0.00 in
07:56 34.6 °F 29.4 °F 30.14 in ENE 8.1 mph 12.0 mph 81 % 0.00 in
08:01 34.7 °F 29.5 °F 30.14 in NE 8.8 mph 12.7 mph 81 % 0.00 in
08:06 34.7 °F 29.5 °F 30.14 in NNE 9.9 mph 16.0 mph 81 % 0.00 in
08:11 34.7 °F 29.2 °F 30.14 in ENE 7.9 mph 11.5 mph 80 % 0.00 in
08:16 34.8 °F 29.3 °F 30.14 in NNW 6.6 mph 13.0 mph 80 % 0.00 in
08:21 34.8 °F 29.3 °F 30.14 in NE 8.6 mph 16.1 mph 80 % 0.00 in
08:26 34.9 °F 29.0 °F 30.14 in NNE 9.5 mph 13.0 mph 79 % 0.00 in
08:31 35.0 °F 29.5 °F 30.14 in NNE 8.3 mph 12.7 mph 80 % 0.00 in
08:36 35.1 °F 29.2 °F 30.14 in NE 7.8 mph 11.5 mph 79 % 0.00 in
08:41 35.2 °F 29.3 °F 30.14 in NNE 10.8 mph 19.6 mph 79 % 0.00 in
08:46 35.2 °F 29.0 °F 30.14 in NNE 10.1 mph 15.0 mph 78 % 0.00 in
08:51 35.5 °F 29.3 °F 30.14 in NE 10.0 mph 16.1 mph 78 % 0.00 in
08:52 35.5 °F 29.3 °F 30.14 in NE 11.1 mph 16.1 mph 78 % 0.00 in
08:57 35.8 °F 29.6 °F 30.14 in NNE 9.5 mph 15.0 mph 78 % 0.00 in
09:02 35.9 °F 29.4 °F 30.14 in NNE 8.5 mph 12.7 mph 77 % 0.00 in
09:07 36.0 °F 29.5 °F 30.14 in NE 12.4 mph 18.4 mph 77 % 0.00 in
09:12 36.0 °F 29.5 °F 30.14 in NNE 9.7 mph 15.0 mph 77 % 0.00 in
09:17 36.2 °F 30.0 °F 30.14 in NNE 9.3 mph 16.1 mph 78 % 0.00 in
09:22 36.5 °F 30.0 °F 30.14 in NE 9.5 mph 16.1 mph 77 % 0.00 in
09:27 36.8 °F 30.3 °F 30.14 in NE 6.9 mph 12.7 mph 77 % 0.00 in
09:32 37.2 °F 30.3 °F 30.15 in NE 7.7 mph 13.8 mph 76 % 0.00 in
09:37 37.6 °F 30.4 °F 30.15 in NNE 10.0 mph 15.0 mph 75 % 0.00 in
09:42 37.9 °F 30.7 °F 30.15 in ENE 9.4 mph 11.5 mph 75 % 0.00 in
09:43 37.9 °F 30.7 °F 30.15 in ENE 11.1 mph 16.0 mph 75 % 0.00 in
09:48 38.2 °F 30.6 °F 30.15 in NE 8.8 mph 13.8 mph 74 % 0.00 in
09:53 38.5 °F 30.9 °F 30.16 in NE 11.0 mph 17.3 mph 74 % 0.00 in
09:58 38.6 °F 30.7 °F 30.16 in NE 11.5 mph 15.0 mph 73 % 0.00 in
10:04 38.8 °F 30.9 °F 30.16 in NE 10.2 mph 13.8 mph 73 % 0.00 in
10:09 39.2 °F 31.3 °F 30.16 in NE 9.4 mph 13.8 mph 73 % 0.00 in
10:14 39.3 °F 31.0 °F 30.16 in NNE 11.4 mph 15.0 mph 72 % 0.00 in
10:19 39.5 °F 30.9 °F 30.16 in NE 11.0 mph 18.4 mph 71 % 0.00 in
10:24 39.6 °F 31.0 °F 30.17 in NE 8.6 mph 12.7 mph 71 % 0.00 in
10:29 39.6 °F 31.0 °F 30.17 in NNE 6.7 mph 11.5 mph 71 % 0.00 in
10:34 40.0 °F 31.7 °F 30.17 in ENE 6.1 mph 9.2 mph 72 % 0.00 in
10:39 40.7 °F 32.4 °F 30.16 in NNE 7.7 mph 12.0 mph 72 % 0.00 in
10:44 41.5 °F 32.4 °F 30.16 in NNE 6.2 mph 11.5 mph 70 % 0.00 in
10:49 42.1 °F 33.0 °F 30.16 in NNE 7.2 mph 10.0 mph 70 % 0.00 in
10:54 42.3 °F 32.5 °F 30.16 in NNE 9.3 mph 13.0 mph 68 % 0.00 in
10:59 42.1 °F 31.9 °F 30.16 in NE 6.5 mph 12.7 mph 67 % 0.00 in
11:04 41.9 °F 31.7 °F 30.16 in NNE 5.6 mph 11.5 mph 67 % 0.00 in
11:09 41.8 °F 31.6 °F 30.16 in NNE 5.8 mph 7.0 mph 67 % 0.00 in
11:14 41.7 °F 31.9 °F 30.16 in NE 6.9 mph 10.4 mph 68 % 0.00 in
11:19 42.0 °F 31.8 °F 30.16 in ENE 6.3 mph 10.4 mph 67 % 0.00 in
11:24 42.4 °F 32.6 °F 30.16 in NNE 6.1 mph 8.0 mph 68 % 0.00 in
11:29 43.0 °F 32.4 °F 30.16 in NE 4.9 mph 10.4 mph 66 % 0.00 in
11:34 43.6 °F 33.4 °F 30.16 in NE 5.9 mph 11.5 mph 67 % 0.00 in
11:39 44.0 °F 33.4 °F 30.16 in NNE 6.2 mph 12.7 mph 66 % 0.00 in
11:45 44.4 °F 33.4 °F 30.16 in NE 5.9 mph 11.5 mph 65 % 0.00 in
11:50 44.9 °F 33.5 °F 30.16 in NNE 5.4 mph 9.2 mph 64 % 0.00 in
11:55 45.3 °F 33.4 °F 30.16 in NE 5.4 mph 9.2 mph 63 % 0.00 in
12:00 45.6 °F 33.7 °F 30.16 in NE 4.9 mph 8.1 mph 63 % 0.00 in
12:05 45.9 °F 34.0 °F 30.16 in ENE 3.7 mph 8.1 mph 63 % 0.00 in
12:10 45.1 °F 33.2 °F 30.16 in NNE 5.6 mph 8.1 mph 63 % 0.00 in
12:15 44.6 °F 32.0 °F 30.16 in ENE 7.7 mph 11.5 mph 61 % 0.00 in
12:20 43.6 °F 32.6 °F 30.16 in ENE 6.8 mph 12.7 mph 65 % 0.00 in
12:25 43.3 °F 32.7 °F 30.16 in ENE 4.1 mph 7.0 mph 66 % 0.00 in
12:30 43.7 °F 33.5 °F 30.16 in NNE 5.2 mph 9.2 mph 67 % 0.00 in
12:35 44.3 °F 33.7 °F 30.16 in NE 5.4 mph 8.0 mph 66 % 0.00 in
12:40 45.0 °F 33.5 °F 30.16 in NE 5.9 mph 8.1 mph 64 % 0.00 in
12:45 45.2 °F 32.5 °F 30.16 in NNE 5.2 mph 12.7 mph 61 % 0.00 in
12:50 44.8 °F 33.0 °F 30.15 in ENE 5.8 mph 8.1 mph 63 % 0.00 in
12:55 44.6 °F 33.2 °F 30.15 in ENE 4.5 mph 6.9 mph 64 % 0.00 in
13:00 44.1 °F 32.3 °F 30.15 in ENE 7.9 mph 11.5 mph 63 % 0.00 in
13:05 43.3 °F 31.5 °F 30.15 in NE 8.4 mph 12.7 mph 63 % 0.00 in
13:10 43.0 °F 31.6 °F 30.15 in ENE 8.7 mph 11.5 mph 64 % 0.00 in
13:15 42.9 °F 32.3 °F 30.15 in NE 7.6 mph 13.8 mph 66 % 0.00 in
13:20 42.7 °F 32.1 °F 30.14 in NE 8.6 mph 11.5 mph 66 % 0.00 in
13:25 42.5 °F 32.3 °F 30.14 in ENE 7.5 mph 11.5 mph 67 % 0.00 in
13:31 42.5 °F 32.3 °F 30.14 in ENE 7.1 mph 11.5 mph 67 % 0.00 in
13:36 42.8 °F 32.2 °F 30.14 in ENE 10.7 mph 15.0 mph 66 % 0.00 in
13:41 42.4 °F 31.5 °F 30.13 in NE 8.5 mph 16.1 mph 65 % 0.00 in
13:46 42.3 °F 32.1 °F 30.13 in ENE 9.6 mph 13.8 mph 67 % 0.00 in
13:47 42.3 °F 32.1 °F 30.13 in NE 9.1 mph 13.8 mph 67 % 0.00 in
13:52 42.1 °F 31.9 °F 30.13 in NE 9.0 mph 11.5 mph 67 % 0.00 in
13:57 42.0 °F 31.8 °F 30.12 in East 8.6 mph 13.8 mph 67 % 0.00 in
14:02 42.3 °F 32.5 °F 30.12 in ENE 7.4 mph 13.8 mph 68 % 0.00 in
14:07 42.5 °F 33.0 °F 30.12 in ENE 7.7 mph 11.0 mph 69 % 0.00 in
14:12 42.7 °F 32.9 °F 30.12 in ENE 7.8 mph 12.7 mph 68 % 0.00 in
14:17 42.5 °F 31.9 °F 30.12 in East 10.0 mph 13.8 mph 66 % 0.00 in
14:22 42.5 °F 31.9 °F 30.12 in ENE 8.0 mph 11.5 mph 66 % 0.00 in
14:27 42.6 °F 32.4 °F 30.11 in ENE 7.3 mph 10.4 mph 67 % 0.00 in
14:32 42.7 °F 32.5 °F 30.11 in ENE 8.3 mph 12.7 mph 67 % 0.00 in
14:37 42.7 °F 32.5 °F 30.11 in NE 7.3 mph 11.5 mph 67 % 0.00 in
14:42 42.8 °F 31.8 °F 30.11 in East 9.7 mph 15.0 mph 65 % 0.00 in
14:47 42.5 °F 31.9 °F 30.11 in East 8.8 mph 11.5 mph 66 % 0.00 in
14:52 42.5 °F 31.6 °F 30.11 in East 9.7 mph 12.7 mph 65 % 0.00 in
14:57 42.4 °F 32.2 °F 30.10 in ENE 8.3 mph 13.8 mph 67 % 0.00 in
15:02 42.5 °F 32.3 °F 30.10 in ENE 7.9 mph 10.4 mph 67 % 0.00 in
15:07 42.5 °F 31.6 °F 30.10 in ENE 9.8 mph 12.7 mph 65 % 0.00 in
15:12 42.5 °F 32.3 °F 30.10 in ENE 5.9 mph 10.4 mph 67 % 0.00 in
15:17 42.7 °F 31.4 °F 30.10 in ENE 7.3 mph 11.5 mph 64 % 0.00 in
15:22 42.9 °F 31.9 °F 30.10 in ENE 6.1 mph 11.5 mph 65 % 0.00 in
15:27 42.8 °F 31.5 °F 30.10 in ENE 4.6 mph 8.1 mph 64 % 0.00 in
15:32 42.6 °F 31.3 °F 30.10 in NE 6.9 mph 11.5 mph 64 % 0.00 in
15:37 42.7 °F 32.1 °F 30.09 in East 6.9 mph 9.2 mph 66 % 0.00 in
15:42 42.9 °F 32.7 °F 30.09 in ENE 6.7 mph 9.2 mph 67 % 0.00 in
15:47 42.6 °F 31.7 °F 30.09 in NE 10.0 mph 13.8 mph 65 % 0.00 in
15:52 42.5 °F 31.9 °F 30.09 in NE 6.7 mph 9.2 mph 66 % 0.00 in
15:57 42.7 °F 32.1 °F 30.08 in East 7.2 mph 10.4 mph 66 % 0.00 in
16:03 42.7 °F 32.1 °F 30.08 in East 6.1 mph 9.2 mph 66 % 0.00 in
16:08 42.7 °F 31.7 °F 30.08 in ENE 8.5 mph 11.5 mph 65 % 0.00 in
16:13 42.5 °F 31.9 °F 30.08 in ENE 4.9 mph 10.4 mph 66 % 0.00 in
16:18 42.5 °F 32.3 °F 30.08 in ENE 5.8 mph 6.9 mph 67 % 0.00 in
16:23 42.6 °F 31.7 °F 30.08 in ENE 6.0 mph 10.4 mph 65 % 0.00 in
16:28 42.6 °F 31.7 °F 30.08 in East 6.5 mph 8.1 mph 65 % 0.00 in
16:33 42.6 °F 32.0 °F 30.08 in ENE 7.0 mph 9.0 mph 66 % 0.00 in
16:38 42.6 °F 32.8 °F 30.08 in ENE 5.0 mph 8.0 mph 68 % 0.00 in
16:43 42.6 °F 33.1 °F 30.08 in East 4.1 mph 7.0 mph 69 % 0.00 in
16:48 42.6 °F 32.8 °F 30.08 in East 6.0 mph 9.0 mph 68 % 0.00 in
16:53 42.5 °F 31.6 °F 30.08 in East 5.0 mph 10.0 mph 65 % 0.00 in
16:58 42.4 °F 31.8 °F 30.08 in ENE 5.4 mph 7.0 mph 66 % 0.00 in
17:03 42.3 °F 31.4 °F 30.07 in East 4.9 mph 7.0 mph 65 % 0.00 in
17:08 42.2 °F 31.6 °F 30.07 in East 7.0 mph 9.0 mph 66 % 0.00 in
17:13 42.0 °F 31.5 °F 30.07 in East 5.0 mph 9.0 mph 66 % 0.00 in
17:18 41.9 °F 31.4 °F 30.07 in East 7.0 mph 9.0 mph 66 % 0.00 in
17:23 41.7 °F 31.2 °F 30.07 in ENE 7.0 mph 8.0 mph 66 % 0.00 in
17:28 41.6 °F 31.4 °F 30.07 in East 6.2 mph 9.2 mph 67 % 0.00 in
17:33 41.5 °F 31.0 °F 30.07 in East 6.0 mph 9.0 mph 66 % 0.00 in
17:38 41.3 °F 30.8 °F 30.07 in ESE 6.5 mph 7.0 mph 66 % 0.00 in
17:43 41.2 °F 30.3 °F 30.07 in East 6.6 mph 9.2 mph 65 % 0.00 in
17:48 41.1 °F 30.6 °F 30.07 in East 6.0 mph 8.0 mph 66 % 0.00 in
17:53 41.0 °F 30.5 °F 30.07 in East 6.0 mph 10.0 mph 66 % 0.00 in
17:58 40.9 °F 30.8 °F 30.07 in East 6.8 mph 9.2 mph 67 % 0.00 in
18:03 40.7 °F 31.0 °F 30.07 in East 6.3 mph 8.1 mph 68 % 0.00 in
18:08 40.6 °F 30.9 °F 30.07 in East 5.6 mph 7.0 mph 68 % 0.00 in
18:13 40.5 °F 31.1 °F 30.07 in East 5.3 mph 8.0 mph 69 % 0.00 in
18:18 40.4 °F 30.7 °F 30.07 in ENE 5.6 mph 6.9 mph 68 % 0.00 in
18:23 40.2 °F 30.5 °F 30.08 in East 4.7 mph 6.9 mph 68 % 0.00 in
18:28 40.2 °F 30.5 °F 30.08 in East 6.7 mph 8.1 mph 68 % 0.00 in
18:33 40.0 °F 30.3 °F 30.08 in East 4.7 mph 6.9 mph 68 % 0.00 in
18:38 39.8 °F 30.5 °F 30.08 in East 4.8 mph 6.9 mph 69 % 0.00 in
18:43 39.7 °F 30.0 °F 30.09 in East 4.1 mph 5.8 mph 68 % 0.00 in
18:48 39.6 °F 29.9 °F 30.08 in East 2.6 mph 6.9 mph 68 % 0.00 in
18:53 39.5 °F 29.4 °F 30.08 in East 2.3 mph 4.6 mph 67 % 0.00 in
18:58 39.5 °F 29.1 °F 30.09 in East 2.2 mph 4.6 mph 66 % 0.00 in
19:03 39.4 °F 29.0 °F 30.09 in East 0.6 mph 2.0 mph 66 % 0.00 in
19:08 39.3 °F 29.3 °F 30.09 in East 1.3 mph 3.5 mph 67 % 0.00 in
19:13 39.2 °F 29.2 °F 30.10 in Calm     67 % 0.00 in
19:18 39.1 °F 29.1 °F 30.10 in Calm     67 % 0.00 in
19:23 39.0 °F 29.3 °F 30.10 in Calm     68 % 0.00 in
19:28 38.9 °F 29.2 °F 30.10 in Calm     68 % 0.00 in
19:33 38.8 °F 29.1 °F 30.10 in Calm     68 % 0.00 in
19:38 38.6 °F 29.3 °F 30.10 in Calm   2.3 mph 69 % 0.00 in
19:43 38.5 °F 29.6 °F 30.11 in Calm     70 % 0.00 in
19:48 38.3 °F 29.7 °F 30.11 in East 0.5 mph 1.2 mph 71 % 0.00 in
19:53 38.1 °F 29.5 °F 30.11 in Calm     71 % 0.00 in
19:58 37.9 °F 29.3 °F 30.11 in East 0.5 mph 1.0 mph 71 % 0.00 in
20:03 37.7 °F 29.5 °F 30.11 in East 0.4 mph 2.3 mph 72 % 0.00 in
20:08 37.4 °F 29.5 °F 30.11 in Calm   2.3 mph 73 % 0.00 in
20:14 37.3 °F 29.8 °F 30.11 in Calm   2.3 mph 74 % 0.00 in
20:19 37.2 °F 29.7 °F 30.12 in Calm     74 % 0.00 in
20:24 37.0 °F 29.5 °F 30.12 in Calm     74 % 0.00 in
20:29 36.9 °F 29.4 °F 30.12 in Calm     74 % 0.00 in
20:34 36.8 °F 29.6 °F 30.12 in Calm     75 % 0.00 in
20:39 36.6 °F 29.4 °F 30.12 in Calm   1.2 mph 75 % 0.00 in
20:44 36.4 °F 29.6 °F 30.12 in Calm     76 % 0.00 in
20:49 36.2 °F 29.4 °F 30.12 in Calm   1.2 mph 76 % 0.00 in
20:54 36.0 °F 29.5 °F 30.12 in Calm     77 % 0.00 in
20:59 35.8 °F 29.3 °F 30.12 in Calm   1.2 mph 77 % 0.00 in
21:04 35.6 °F 29.1 °F 30.12 in Calm   1.2 mph 77 % 0.00 in
21:10 35.5 °F 29.3 °F 30.12 in Calm     78 % 0.00 in
21:15 35.2 °F 29.0 °F 30.12 in ENE 1.0 mph 2.3 mph 78 % 0.00 in
21:20 35.0 °F 29.1 °F 30.12 in NNW 0.5 mph 2.3 mph 79 % 0.00 in
21:25 34.8 °F 29.0 °F 30.12 in NNW 0.1 mph 1.2 mph 79 % 0.00 in
21:30 34.8 °F 29.0 °F 30.12 in NNW 1.3 mph 2.3 mph 79 % 0.00 in
21:35 34.6 °F 29.1 °F 30.12 in NNW 0.7 mph 2.3 mph 80 % 0.00 in
21:40 34.5 °F 29.0 °F 30.11 in NNW 0.5 mph 2.3 mph 80 % 0.00 in
21:45 34.4 °F 28.9 °F 30.12 in NNW 0.9 mph 2.3 mph 80 % 0.00 in
21:50 34.2 °F 28.7 °F 30.11 in NNW 0.3 mph 1.2 mph 80 % 0.00 in
21:55 34.2 °F 28.7 °F 30.12 in Calm     80 % 0.00 in
22:00 34.1 °F 28.6 °F 30.11 in NNW 0.3 mph 1.2 mph 80 % 0.00 in
22:05 34.1 °F 28.6 °F 30.11 in NW 0.2 mph 2.0 mph 80 % 0.00 in
22:10 34.0 °F 28.2 °F 30.11 in NW 1.1 mph 2.3 mph 79 % 0.00 in
22:15 34.0 °F 28.5 °F 30.11 in NW 1.1 mph 2.3 mph 80 % 0.00 in
22:20 34.1 °F 28.6 °F 30.11 in Calm     80 % 0.00 in
22:25 34.0 °F 28.5 °F 30.11 in Calm   1.2 mph 80 % 0.00 in
22:30 34.0 °F 28.5 °F 30.11 in Calm     80 % 0.00 in
22:35 33.9 °F 28.4 °F 30.11 in Calm     80 % 0.00 in
22:40 33.8 °F 28.0 °F 30.11 in Calm     79 % 0.00 in
22:45 33.6 °F 28.1 °F 30.11 in NW 0.3 mph 2.3 mph 80 % 0.00 in
22:50 33.4 °F 27.9 °F 30.11 in Calm     80 % 0.00 in
22:55 33.2 °F 27.7 °F 30.11 in Calm     80 % 0.00 in
23:00 32.9 °F 27.4 °F 30.11 in Calm   1.2 mph 80 % 0.00 in
23:05 32.6 °F 27.4 °F 30.11 in Calm     81 % 0.00 in
23:11 32.3 °F 27.1 °F 30.10 in Calm   1.2 mph 81 % 0.00 in
23:15 32.2 °F 27.3 °F 30.10 in Calm     82 % 0.00 in
23:21 32.1 °F 26.9 °F 30.10 in Calm     81 % 0.00 in
23:26 32.1 °F 26.6 °F 30.10 in NW 0.8 mph 1.2 mph 80 % 0.00 in
23:31 32.2 °F 26.4 °F 30.09 in NW 0.2 mph 2.3 mph 79 % 0.00 in
23:36 32.3 °F 26.2 °F 30.10 in NW 0.9 mph 2.3 mph 78 % 0.00 in
23:41 32.5 °F 26.4 °F 30.10 in NW 0.4 mph 2.3 mph 78 % 0.00 in
23:46 32.7 °F 26.6 °F 30.10 in Calm   1.2 mph 78 % 0.00 in
23:51 32.8 °F 26.7 °F 30.09 in Calm     78 % 0.00 in
23:56 32.9 °F 26.8 °F 30.09 in NW 0.7 mph 2.3 mph 78 % 0.00 in
Crab Meadow Weather
Compliments of Weather Underground - 3 mb

Script developed by  Jim McMurry - jmcmurry@mwt.net Adapted for the template by  Wim van der Kuil - Leuven-Template.eu

Weather Terms: High Wind Warning - Sustained winds of 40 mph or greater for a duration of one hour or longer or gusts to 58 mph or greater.